sensor_id;sensor_type;location;lat;lon;timestamp;temperature;humidity
13817;DHT22;6979;52.116;5.286;2023-07-31T00:00:24;19.00;99.90
13817;DHT22;6979;52.116;5.286;2023-07-31T00:02:52;19.00;99.90
13817;DHT22;6979;52.116;5.286;2023-07-31T00:05:19;19.00;99.90
13817;DHT22;6979;52.116;5.286;2023-07-31T00:07:47;19.00;99.90
13817;DHT22;6979;52.116;5.286;2023-07-31T00:10:15;19.00;99.90
13817;DHT22;6979;52.116;5.286;2023-07-31T00:12:44;19.10;99.90
13817;DHT22;6979;52.116;5.286;2023-07-31T00:15:12;19.10;99.90
13817;DHT22;6979;52.116;5.286;2023-07-31T00:17:39;19.10;99.90
13817;DHT22;6979;52.116;5.286;2023-07-31T00:20:06;19.10;99.90
13817;DHT22;6979;52.116;5.286;2023-07-31T00:22:34;19.10;99.90
13817;DHT22;6979;52.116;5.286;2023-07-31T00:25:02;19.10;99.90
13817;DHT22;6979;52.116;5.286;2023-07-31T00:27:31;19.20;99.90
13817;DHT22;6979;52.116;5.286;2023-07-31T00:29:58;19.20;99.90
13817;DHT22;6979;52.116;5.286;2023-07-31T00:32:25;19.20;99.90
13817;DHT22;6979;52.116;5.286;2023-07-31T00:34:52;19.20;99.90
13817;DHT22;6979;52.116;5.286;2023-07-31T00:37:21;19.30;99.90
13817;DHT22;6979;52.116;5.286;2023-07-31T00:39:48;19.30;99.90
13817;DHT22;6979;52.116;5.286;2023-07-31T00:42:15;19.40;99.90
13817;DHT22;6979;52.116;5.286;2023-07-31T00:44:43;19.40;99.90
13817;DHT22;6979;52.116;5.286;2023-07-31T00:47:15;19.50;99.90
13817;DHT22;6979;52.116;5.286;2023-07-31T00:49:42;19.60;99.90
13817;DHT22;6979;52.116;5.286;2023-07-31T00:52:09;19.60;99.90
13817;DHT22;6979;52.116;5.286;2023-07-31T00:54:37;19.70;99.90
13817;DHT22;6979;52.116;5.286;2023-07-31T00:57:06;19.80;99.90
13817;DHT22;6979;52.116;5.286;2023-07-31T00:59:34;19.80;99.90
13817;DHT22;6979;52.116;5.286;2023-07-31T01:02:04;19.90;99.90
13817;DHT22;6979;52.116;5.286;2023-07-31T01:04:31;20.00;99.90
13817;DHT22;6979;52.116;5.286;2023-07-31T01:07:03;20.00;99.90
13817;DHT22;6979;52.116;5.286;2023-07-31T01:09:37;20.10;99.90
13817;DHT22;6979;52.116;5.286;2023-07-31T01:12:07;20.20;99.90
13817;DHT22;6979;52.116;5.286;2023-07-31T01:14:35;20.20;99.90
13817;DHT22;6979;52.116;5.286;2023-07-31T01:17:04;20.20;99.90
13817;DHT22;6979;52.116;5.286;2023-07-31T01:19:31;20.30;99.90
13817;DHT22;6979;52.116;5.286;2023-07-31T01:22:25;20.30;99.90
13817;DHT22;6979;52.116;5.286;2023-07-31T01:25:09;20.30;99.90
13817;DHT22;6979;52.116;5.286;2023-07-31T01:27:46;20.40;99.90
13817;DHT22;6979;52.116;5.286;2023-07-31T01:30:17;20.30;99.90
13817;DHT22;6979;52.116;5.286;2023-07-31T01:32:48;20.40;99.90
13817;DHT22;6979;52.116;5.286;2023-07-31T01:35:17;20.40;99.90
13817;DHT22;6979;52.116;5.286;2023-07-31T01:37:45;20.30;99.90
13817;DHT22;6979;52.116;5.286;2023-07-31T01:40:12;20.30;99.90
13817;DHT22;6979;52.116;5.286;2023-07-31T01:42:42;20.40;99.90
13817;DHT22;6979;52.116;5.286;2023-07-31T01:45:14;20.30;99.90
13817;DHT22;6979;52.116;5.286;2023-07-31T01:47:41;20.30;99.90
13817;DHT22;6979;52.116;5.286;2023-07-31T01:50:09;20.30;99.90
13817;DHT22;6979;52.116;5.286;2023-07-31T01:52:36;20.30;99.90
13817;DHT22;6979;52.116;5.286;2023-07-31T01:55:03;20.30;99.90
13817;DHT22;6979;52.116;5.286;2023-07-31T01:57:31;20.30;99.90
13817;DHT22;6979;52.116;5.286;2023-07-31T02:00:05;20.30;99.90
13817;DHT22;6979;52.116;5.286;2023-07-31T02:02:37;20.30;99.90
13817;DHT22;6979;52.116;5.286;2023-07-31T02:05:09;20.30;99.90
13817;DHT22;6979;52.116;5.286;2023-07-31T02:07:37;20.30;99.90
13817;DHT22;6979;52.116;5.286;2023-07-31T02:10:04;20.30;99.90
13817;DHT22;6979;52.116;5.286;2023-07-31T02:12:31;20.30;99.90
13817;DHT22;6979;52.116;5.286;2023-07-31T02:14:59;20.30;99.90
13817;DHT22;6979;52.116;5.286;2023-07-31T02:17:27;20.20;99.90
13817;DHT22;6979;52.116;5.286;2023-07-31T02:19:55;20.20;99.90
13817;DHT22;6979;52.116;5.286;2023-07-31T02:22:21;20.20;99.90
13817;DHT22;6979;52.116;5.286;2023-07-31T02:24:49;20.20;99.90
13817;DHT22;6979;52.116;5.286;2023-07-31T02:27:15;20.10;99.90
13817;DHT22;6979;52.116;5.286;2023-07-31T02:29:42;20.10;99.90
13817;DHT22;6979;52.116;5.286;2023-07-31T02:32:09;20.20;99.90
13817;DHT22;6979;52.116;5.286;2023-07-31T02:34:38;20.10;99.90
13817;DHT22;6979;52.116;5.286;2023-07-31T02:37:05;20.10;99.90
13817;DHT22;6979;52.116;5.286;2023-07-31T02:39:32;20.10;99.90
13817;DHT22;6979;52.116;5.286;2023-07-31T02:41:59;20.10;99.90
13817;DHT22;6979;52.116;5.286;2023-07-31T02:44:27;20.10;99.90
13817;DHT22;6979;52.116;5.286;2023-07-31T02:46:54;20.20;99.90
13817;DHT22;6979;52.116;5.286;2023-07-31T02:49:21;20.20;99.90
13817;DHT22;6979;52.116;5.286;2023-07-31T02:51:49;20.20;99.90
13817;DHT22;6979;52.116;5.286;2023-07-31T02:54:16;20.20;99.90
13817;DHT22;6979;52.116;5.286;2023-07-31T02:56:43;20.20;99.90
13817;DHT22;6979;52.116;5.286;2023-07-31T02:59:10;20.20;99.90
13817;DHT22;6979;52.116;5.286;2023-07-31T03:01:37;20.20;99.90
13817;DHT22;6979;52.116;5.286;2023-07-31T03:04:04;20.20;99.90
13817;DHT22;6979;52.116;5.286;2023-07-31T03:06:31;20.10;99.90
13817;DHT22;6979;52.116;5.286;2023-07-31T03:09:00;20.20;99.90
13817;DHT22;6979;52.116;5.286;2023-07-31T03:11:27;20.20;99.90
13817;DHT22;6979;52.116;5.286;2023-07-31T03:13:56;20.20;99.90
13817;DHT22;6979;52.116;5.286;2023-07-31T03:16:23;20.20;99.90
13817;DHT22;6979;52.116;5.286;2023-07-31T03:18:49;20.20;99.90
13817;DHT22;6979;52.116;5.286;2023-07-31T03:21:16;20.20;99.90
13817;DHT22;6979;52.116;5.286;2023-07-31T03:23:43;20.20;99.90
13817;DHT22;6979;52.116;5.286;2023-07-31T03:26:12;20.20;99.90
13817;DHT22;6979;52.116;5.286;2023-07-31T03:28:39;20.20;99.90
13817;DHT22;6979;52.116;5.286;2023-07-31T03:31:06;20.20;99.90
13817;DHT22;6979;52.116;5.286;2023-07-31T03:33:33;20.20;99.90
13817;DHT22;6979;52.116;5.286;2023-07-31T03:36:00;20.20;99.90
13817;DHT22;6979;52.116;5.286;2023-07-31T03:38:29;20.20;99.90
13817;DHT22;6979;52.116;5.286;2023-07-31T03:40:56;20.20;99.90
13817;DHT22;6979;52.116;5.286;2023-07-31T03:43:28;20.20;99.90
13817;DHT22;6979;52.116;5.286;2023-07-31T03:45:59;20.20;99.90
13817;DHT22;6979;52.116;5.286;2023-07-31T03:48:28;20.20;99.90
13817;DHT22;6979;52.116;5.286;2023-07-31T03:50:55;20.20;99.90
13817;DHT22;6979;52.116;5.286;2023-07-31T03:53:22;20.20;99.90
13817;DHT22;6979;52.116;5.286;2023-07-31T03:55:49;20.20;99.90
13817;DHT22;6979;52.116;5.286;2023-07-31T03:58:16;20.10;99.90
13817;DHT22;6979;52.116;5.286;2023-07-31T04:00:45;20.20;99.90
13817;DHT22;6979;52.116;5.286;2023-07-31T04:03:12;20.20;99.90
13817;DHT22;6979;52.116;5.286;2023-07-31T04:05:39;20.20;99.90
13817;DHT22;6979;52.116;5.286;2023-07-31T04:08:06;20.10;99.90
13817;DHT22;6979;52.116;5.286;2023-07-31T04:10:33;20.20;99.90
13817;DHT22;6979;52.116;5.286;2023-07-31T04:13:00;20.20;99.90
13817;DHT22;6979;52.116;5.286;2023-07-31T04:15:30;20.20;99.90
13817;DHT22;6979;52.116;5.286;2023-07-31T04:17:58;20.20;99.90
13817;DHT22;6979;52.116;5.286;2023-07-31T04:20:25;20.10;99.90
13817;DHT22;6979;52.116;5.286;2023-07-31T04:22:52;20.10;99.90
13817;DHT22;6979;52.116;5.286;2023-07-31T04:25:22;20.10;99.90
13817;DHT22;6979;52.116;5.286;2023-07-31T04:27:49;20.10;99.90
13817;DHT22;6979;52.116;5.286;2023-07-31T04:30:15;20.10;99.90
13817;DHT22;6979;52.116;5.286;2023-07-31T04:32:43;20.00;99.90
13817;DHT22;6979;52.116;5.286;2023-07-31T04:35:11;20.00;99.90
13817;DHT22;6979;52.116;5.286;2023-07-31T04:37:38;20.00;99.90
13817;DHT22;6979;52.116;5.286;2023-07-31T04:40:06;20.00;99.90
13817;DHT22;6979;52.116;5.286;2023-07-31T04:42:33;20.00;99.90
13817;DHT22;6979;52.116;5.286;2023-07-31T04:45:01;20.00;99.90
13817;DHT22;6979;52.116;5.286;2023-07-31T04:47:28;20.00;99.90
13817;DHT22;6979;52.116;5.286;2023-07-31T04:49:55;19.90;99.90
13817;DHT22;6979;52.116;5.286;2023-07-31T04:52:23;19.90;99.90
13817;DHT22;6979;52.116;5.286;2023-07-31T04:54:50;19.90;99.90
13817;DHT22;6979;52.116;5.286;2023-07-31T04:57:17;19.90;99.90
13817;DHT22;6979;52.116;5.286;2023-07-31T04:59:44;19.90;99.90
13817;DHT22;6979;52.116;5.286;2023-07-31T05:02:12;19.90;99.90
13817;DHT22;6979;52.116;5.286;2023-07-31T05:04:39;19.90;99.90
13817;DHT22;6979;52.116;5.286;2023-07-31T05:07:06;19.90;99.90
13817;DHT22;6979;52.116;5.286;2023-07-31T05:09:34;19.90;99.90
13817;DHT22;6979;52.116;5.286;2023-07-31T05:12:05;19.90;99.90
13817;DHT22;6979;52.116;5.286;2023-07-31T05:14:33;19.80;99.90
13817;DHT22;6979;52.116;5.286;2023-07-31T05:17:01;19.80;99.90
13817;DHT22;6979;52.116;5.286;2023-07-31T05:19:28;19.80;99.90
13817;DHT22;6979;52.116;5.286;2023-07-31T05:21:55;19.80;99.90
13817;DHT22;6979;52.116;5.286;2023-07-31T05:24:22;19.80;99.90
13817;DHT22;6979;52.116;5.286;2023-07-31T05:26:51;19.80;99.90
13817;DHT22;6979;52.116;5.286;2023-07-31T05:29:18;19.80;99.90
13817;DHT22;6979;52.116;5.286;2023-07-31T05:31:45;19.70;99.90
13817;DHT22;6979;52.116;5.286;2023-07-31T05:34:11;19.70;99.90
13817;DHT22;6979;52.116;5.286;2023-07-31T05:36:38;19.70;99.90
13817;DHT22;6979;52.116;5.286;2023-07-31T05:39:05;19.70;99.90
13817;DHT22;6979;52.116;5.286;2023-07-31T05:41:35;19.70;99.90
13817;DHT22;6979;52.116;5.286;2023-07-31T05:44:04;19.70;99.90
13817;DHT22;6979;52.116;5.286;2023-07-31T05:46:30;19.70;99.90
13817;DHT22;6979;52.116;5.286;2023-07-31T05:48:58;19.70;99.90
13817;DHT22;6979;52.116;5.286;2023-07-31T05:51:26;19.60;99.90
13817;DHT22;6979;52.116;5.286;2023-07-31T05:53:56;19.60;99.90
13817;DHT22;6979;52.116;5.286;2023-07-31T05:56:22;19.60;99.90
13817;DHT22;6979;52.116;5.286;2023-07-31T05:58:50;19.60;99.90
13817;DHT22;6979;52.116;5.286;2023-07-31T06:01:18;19.60;99.90
13817;DHT22;6979;52.116;5.286;2023-07-31T06:03:47;19.60;99.90
13817;DHT22;6979;52.116;5.286;2023-07-31T06:06:14;19.60;99.90
13817;DHT22;6979;52.116;5.286;2023-07-31T06:08:41;19.60;99.90
13817;DHT22;6979;52.116;5.286;2023-07-31T06:11:08;19.60;99.90
13817;DHT22;6979;52.116;5.286;2023-07-31T06:13:35;19.60;99.90
13817;DHT22;6979;52.116;5.286;2023-07-31T06:16:02;19.60;99.90
13817;DHT22;6979;52.116;5.286;2023-07-31T06:18:32;19.60;99.90
13817;DHT22;6979;52.116;5.286;2023-07-31T06:20:59;19.60;99.90
13817;DHT22;6979;52.116;5.286;2023-07-31T06:23:26;19.60;99.90
13817;DHT22;6979;52.116;5.286;2023-07-31T06:25:53;19.60;99.90
13817;DHT22;6979;52.116;5.286;2023-07-31T06:28:20;19.60;99.90
13817;DHT22;6979;52.116;5.286;2023-07-31T06:30:47;19.60;99.90
13817;DHT22;6979;52.116;5.286;2023-07-31T06:33:14;19.60;99.90
13817;DHT22;6979;52.116;5.286;2023-07-31T06:35:42;19.60;99.90
13817;DHT22;6979;52.116;5.286;2023-07-31T06:38:09;19.60;99.90
13817;DHT22;6979;52.116;5.286;2023-07-31T06:40:36;19.60;99.90
13817;DHT22;6979;52.116;5.286;2023-07-31T06:43:03;19.70;99.90
13817;DHT22;6979;52.116;5.286;2023-07-31T06:45:33;19.70;99.90
13817;DHT22;6979;52.116;5.286;2023-07-31T06:48:01;19.70;99.90
13817;DHT22;6979;52.116;5.286;2023-07-31T06:50:28;19.70;99.90
13817;DHT22;6979;52.116;5.286;2023-07-31T06:52:56;19.70;99.90
13817;DHT22;6979;52.116;5.286;2023-07-31T06:55:24;19.80;99.90
13817;DHT22;6979;52.116;5.286;2023-07-31T06:57:53;19.80;99.90
13817;DHT22;6979;52.116;5.286;2023-07-31T07:00:21;19.80;99.90
13817;DHT22;6979;52.116;5.286;2023-07-31T07:02:48;19.80;99.90
13817;DHT22;6979;52.116;5.286;2023-07-31T07:05:17;19.80;99.90
13817;DHT22;6979;52.116;5.286;2023-07-31T07:07:44;19.90;99.90
13817;DHT22;6979;52.116;5.286;2023-07-31T07:10:15;19.90;99.90
13817;DHT22;6979;52.116;5.286;2023-07-31T07:12:42;19.90;99.90
13817;DHT22;6979;52.116;5.286;2023-07-31T07:15:09;19.90;99.90
13817;DHT22;6979;52.116;5.286;2023-07-31T07:17:36;20.00;99.90
13817;DHT22;6979;52.116;5.286;2023-07-31T07:20:06;20.00;99.90
13817;DHT22;6979;52.116;5.286;2023-07-31T07:22:33;20.00;99.90
13817;DHT22;6979;52.116;5.286;2023-07-31T07:25:00;20.10;99.90
13817;DHT22;6979;52.116;5.286;2023-07-31T07:27:29;20.10;99.90
13817;DHT22;6979;52.116;5.286;2023-07-31T07:29:56;20.10;99.90
13817;DHT22;6979;52.116;5.286;2023-07-31T07:32:26;20.10;99.90
13817;DHT22;6979;52.116;5.286;2023-07-31T07:34:55;20.10;99.90
13817;DHT22;6979;52.116;5.286;2023-07-31T07:37:23;20.10;99.90
13817;DHT22;6979;52.116;5.286;2023-07-31T07:39:50;20.10;99.90
13817;DHT22;6979;52.116;5.286;2023-07-31T07:42:18;20.10;99.90
13817;DHT22;6979;52.116;5.286;2023-07-31T07:44:46;20.10;99.90
13817;DHT22;6979;52.116;5.286;2023-07-31T07:47:16;20.20;99.90
13817;DHT22;6979;52.116;5.286;2023-07-31T07:49:45;20.20;99.90
13817;DHT22;6979;52.116;5.286;2023-07-31T07:52:15;20.20;99.90
13817;DHT22;6979;52.116;5.286;2023-07-31T07:54:42;20.20;99.90
13817;DHT22;6979;52.116;5.286;2023-07-31T07:57:09;20.20;99.90
13817;DHT22;6979;52.116;5.286;2023-07-31T07:59:36;20.30;99.90
13817;DHT22;6979;52.116;5.286;2023-07-31T08:02:04;20.30;99.90
13817;DHT22;6979;52.116;5.286;2023-07-31T08:04:31;20.30;99.90
13817;DHT22;6979;52.116;5.286;2023-07-31T08:07:01;20.30;99.90
13817;DHT22;6979;52.116;5.286;2023-07-31T08:09:28;20.40;99.90
13817;DHT22;6979;52.116;5.286;2023-07-31T08:11:55;20.30;99.90
13817;DHT22;6979;52.116;5.286;2023-07-31T08:14:27;20.40;99.90
13817;DHT22;6979;52.116;5.286;2023-07-31T08:16:54;20.40;99.90
13817;DHT22;6979;52.116;5.286;2023-07-31T08:19:22;20.40;99.90
13817;DHT22;6979;52.116;5.286;2023-07-31T08:21:49;20.40;99.90
13817;DHT22;6979;52.116;5.286;2023-07-31T08:24:16;20.40;99.90
13817;DHT22;6979;52.116;5.286;2023-07-31T08:26:43;20.50;99.90
13817;DHT22;6979;52.116;5.286;2023-07-31T08:29:10;20.50;99.90
13817;DHT22;6979;52.116;5.286;2023-07-31T08:31:37;20.50;99.90
13817;DHT22;6979;52.116;5.286;2023-07-31T08:34:04;20.60;99.90
13817;DHT22;6979;52.116;5.286;2023-07-31T08:36:32;20.60;99.90
13817;DHT22;6979;52.116;5.286;2023-07-31T08:38:59;20.60;99.90
13817;DHT22;6979;52.116;5.286;2023-07-31T08:41:27;20.60;99.90
13817;DHT22;6979;52.116;5.286;2023-07-31T08:43:55;20.60;99.90
13817;DHT22;6979;52.116;5.286;2023-07-31T08:46:23;20.70;99.90
13817;DHT22;6979;52.116;5.286;2023-07-31T08:48:51;20.70;99.90
13817;DHT22;6979;52.116;5.286;2023-07-31T08:51:19;20.70;99.90
13817;DHT22;6979;52.116;5.286;2023-07-31T08:53:48;20.70;99.90
13817;DHT22;6979;52.116;5.286;2023-07-31T08:56:15;20.80;99.90
13817;DHT22;6979;52.116;5.286;2023-07-31T08:58:44;20.80;99.90
13817;DHT22;6979;52.116;5.286;2023-07-31T09:01:12;20.80;99.90
13817;DHT22;6979;52.116;5.286;2023-07-31T09:03:40;20.80;99.90
13817;DHT22;6979;52.116;5.286;2023-07-31T09:06:08;20.80;99.90
13817;DHT22;6979;52.116;5.286;2023-07-31T09:08:39;20.80;99.90
13817;DHT22;6979;52.116;5.286;2023-07-31T09:11:09;20.80;99.90
13817;DHT22;6979;52.116;5.286;2023-07-31T09:13:37;20.80;99.90
13817;DHT22;6979;52.116;5.286;2023-07-31T09:16:08;20.80;99.90
13817;DHT22;6979;52.116;5.286;2023-07-31T09:18:53;20.80;99.90
13817;DHT22;6979;52.116;5.286;2023-07-31T09:21:20;20.90;99.90
13817;DHT22;6979;52.116;5.286;2023-07-31T09:23:47;20.90;99.90
13817;DHT22;6979;52.116;5.286;2023-07-31T09:26:32;20.90;99.90
13817;DHT22;6979;52.116;5.286;2023-07-31T09:28:59;20.90;99.90
13817;DHT22;6979;52.116;5.286;2023-07-31T09:31:33;21.00;99.90
13817;DHT22;6979;52.116;5.286;2023-07-31T09:34:04;21.00;99.90
13817;DHT22;6979;52.116;5.286;2023-07-31T09:36:31;21.00;99.90
13817;DHT22;6979;52.116;5.286;2023-07-31T09:39:02;21.00;99.90
13817;DHT22;6979;52.116;5.286;2023-07-31T09:41:29;21.00;99.90
13817;DHT22;6979;52.116;5.286;2023-07-31T09:44:03;21.10;99.90
13817;DHT22;6979;52.116;5.286;2023-07-31T09:46:30;21.10;99.90
13817;DHT22;6979;52.116;5.286;2023-07-31T09:49:05;21.10;99.90
13817;DHT22;6979;52.116;5.286;2023-07-31T09:51:32;21.10;99.90
13817;DHT22;6979;52.116;5.286;2023-07-31T09:54:12;21.10;99.90
13817;DHT22;6979;52.116;5.286;2023-07-31T09:56:42;21.10;99.90
13817;DHT22;6979;52.116;5.286;2023-07-31T09:59:13;21.10;99.90
13817;DHT22;6979;52.116;5.286;2023-07-31T10:01:41;21.20;99.90
13817;DHT22;6979;52.116;5.286;2023-07-31T10:04:09;21.20;99.90
13817;DHT22;6979;52.116;5.286;2023-07-31T10:06:37;21.20;99.90
13817;DHT22;6979;52.116;5.286;2023-07-31T10:09:07;21.20;99.90
13817;DHT22;6979;52.116;5.286;2023-07-31T10:11:40;21.30;99.90
13817;DHT22;6979;52.116;5.286;2023-07-31T10:14:09;21.30;99.90
13817;DHT22;6979;52.116;5.286;2023-07-31T10:16:39;21.30;99.90
13817;DHT22;6979;52.116;5.286;2023-07-31T10:19:07;21.30;99.90
13817;DHT22;6979;52.116;5.286;2023-07-31T10:21:35;21.30;99.90
13817;DHT22;6979;52.116;5.286;2023-07-31T10:24:04;21.30;99.90
13817;DHT22;6979;52.116;5.286;2023-07-31T10:26:32;21.30;99.90
13817;DHT22;6979;52.116;5.286;2023-07-31T10:29:00;21.30;99.90
13817;DHT22;6979;52.116;5.286;2023-07-31T10:31:27;21.30;99.90
13817;DHT22;6979;52.116;5.286;2023-07-31T10:33:59;21.30;99.90
13817;DHT22;6979;52.116;5.286;2023-07-31T10:36:29;21.40;99.90
13817;DHT22;6979;52.116;5.286;2023-07-31T10:38:56;21.40;99.90
13817;DHT22;6979;52.116;5.286;2023-07-31T10:41:33;21.30;99.90
13817;DHT22;6979;52.116;5.286;2023-07-31T10:44:04;21.40;99.90
13817;DHT22;6979;52.116;5.286;2023-07-31T10:46:33;21.40;99.90
13817;DHT22;6979;52.116;5.286;2023-07-31T10:49:03;21.40;99.90
13817;DHT22;6979;52.116;5.286;2023-07-31T10:51:33;21.40;99.90
13817;DHT22;6979;52.116;5.286;2023-07-31T10:54:11;21.40;99.90
13817;DHT22;6979;52.116;5.286;2023-07-31T10:56:40;21.40;99.90
13817;DHT22;6979;52.116;5.286;2023-07-31T10:59:14;21.40;99.90
13817;DHT22;6979;52.116;5.286;2023-07-31T11:01:52;21.40;99.90
13817;DHT22;6979;52.116;5.286;2023-07-31T11:04:25;21.40;99.90
13817;DHT22;6979;52.116;5.286;2023-07-31T11:06:56;21.50;99.90
13817;DHT22;6979;52.116;5.286;2023-07-31T11:09:25;21.50;99.90
13817;DHT22;6979;52.116;5.286;2023-07-31T11:11:54;21.50;99.90
13817;DHT22;6979;52.116;5.286;2023-07-31T11:14:24;21.60;99.90
13817;DHT22;6979;52.116;5.286;2023-07-31T11:16:52;21.60;99.90
13817;DHT22;6979;52.116;5.286;2023-07-31T11:19:24;21.60;99.90
13817;DHT22;6979;52.116;5.286;2023-07-31T11:21:52;21.70;99.90
13817;DHT22;6979;52.116;5.286;2023-07-31T11:24:19;21.70;99.90
13817;DHT22;6979;52.116;5.286;2023-07-31T11:26:50;21.70;99.90
13817;DHT22;6979;52.116;5.286;2023-07-31T11:29:18;21.70;99.90
13817;DHT22;6979;52.116;5.286;2023-07-31T11:31:45;21.70;99.90
13817;DHT22;6979;52.116;5.286;2023-07-31T11:34:13;21.70;99.90
13817;DHT22;6979;52.116;5.286;2023-07-31T11:36:52;21.70;99.90
13817;DHT22;6979;52.116;5.286;2023-07-31T11:39:19;21.70;99.90
13817;DHT22;6979;52.116;5.286;2023-07-31T11:41:46;21.70;99.90
13817;DHT22;6979;52.116;5.286;2023-07-31T11:44:16;21.70;99.90
13817;DHT22;6979;52.116;5.286;2023-07-31T11:46:43;21.70;99.90
13817;DHT22;6979;52.116;5.286;2023-07-31T11:49:12;21.70;99.90
13817;DHT22;6979;52.116;5.286;2023-07-31T11:51:39;21.70;99.90
13817;DHT22;6979;52.116;5.286;2023-07-31T11:54:13;21.70;99.90
13817;DHT22;6979;52.116;5.286;2023-07-31T11:56:40;21.70;99.90
13817;DHT22;6979;52.116;5.286;2023-07-31T11:59:07;21.70;99.90
13817;DHT22;6979;52.116;5.286;2023-07-31T12:01:35;21.70;99.90
13817;DHT22;6979;52.116;5.286;2023-07-31T12:04:02;21.70;99.90
13817;DHT22;6979;52.116;5.286;2023-07-31T12:06:35;21.70;99.90
13817;DHT22;6979;52.116;5.286;2023-07-31T12:09:04;21.80;99.90
13817;DHT22;6979;52.116;5.286;2023-07-31T12:11:42;21.80;99.90
13817;DHT22;6979;52.116;5.286;2023-07-31T12:14:19;21.80;99.90
13817;DHT22;6979;52.116;5.286;2023-07-31T12:16:53;21.80;99.90
13817;DHT22;6979;52.116;5.286;2023-07-31T12:19:21;21.80;99.90
13817;DHT22;6979;52.116;5.286;2023-07-31T12:21:48;21.80;99.90
13817;DHT22;6979;52.116;5.286;2023-07-31T12:24:18;21.80;99.90
13817;DHT22;6979;52.116;5.286;2023-07-31T12:26:47;21.80;99.90
13817;DHT22;6979;52.116;5.286;2023-07-31T12:29:15;21.80;99.90
13817;DHT22;6979;52.116;5.286;2023-07-31T12:31:42;21.80;99.90
13817;DHT22;6979;52.116;5.286;2023-07-31T12:34:15;21.80;99.90
13817;DHT22;6979;52.116;5.286;2023-07-31T12:36:53;21.90;99.90
13817;DHT22;6979;52.116;5.286;2023-07-31T12:39:22;21.90;99.90
13817;DHT22;6979;52.116;5.286;2023-07-31T12:41:52;21.90;99.90
13817;DHT22;6979;52.116;5.286;2023-07-31T12:44:18;21.90;99.90
13817;DHT22;6979;52.116;5.286;2023-07-31T12:46:51;21.90;99.90
13817;DHT22;6979;52.116;5.286;2023-07-31T12:49:18;21.90;99.90
13817;DHT22;6979;52.116;5.286;2023-07-31T12:51:45;21.90;99.90
13817;DHT22;6979;52.116;5.286;2023-07-31T12:54:12;22.00;99.90
13817;DHT22;6979;52.116;5.286;2023-07-31T12:56:40;22.00;99.90
13817;DHT22;6979;52.116;5.286;2023-07-31T12:59:08;22.00;99.90
13817;DHT22;6979;52.116;5.286;2023-07-31T13:01:35;22.00;99.90
13817;DHT22;6979;52.116;5.286;2023-07-31T13:04:02;22.00;99.90
13817;DHT22;6979;52.116;5.286;2023-07-31T13:06:31;22.00;99.90
13817;DHT22;6979;52.116;5.286;2023-07-31T13:08:58;22.00;99.90
13817;DHT22;6979;52.116;5.286;2023-07-31T13:11:25;22.00;99.90
13817;DHT22;6979;52.116;5.286;2023-07-31T13:13:52;22.00;99.90
13817;DHT22;6979;52.116;5.286;2023-07-31T13:16:20;22.00;99.90
13817;DHT22;6979;52.116;5.286;2023-07-31T13:18:47;22.10;99.90
13817;DHT22;6979;52.116;5.286;2023-07-31T13:21:14;22.10;99.90
13817;DHT22;6979;52.116;5.286;2023-07-31T13:23:41;22.10;99.90
13817;DHT22;6979;52.116;5.286;2023-07-31T13:26:08;22.10;99.90
13817;DHT22;6979;52.116;5.286;2023-07-31T13:28:35;22.10;99.90
13817;DHT22;6979;52.116;5.286;2023-07-31T13:31:04;22.20;99.90
13817;DHT22;6979;52.116;5.286;2023-07-31T13:33:32;22.10;99.90
13817;DHT22;6979;52.116;5.286;2023-07-31T13:36:01;22.20;99.90
13817;DHT22;6979;52.116;5.286;2023-07-31T13:38:28;22.10;99.90
13817;DHT22;6979;52.116;5.286;2023-07-31T13:40:55;22.10;99.90
13817;DHT22;6979;52.116;5.286;2023-07-31T13:43:23;22.10;99.90
13817;DHT22;6979;52.116;5.286;2023-07-31T13:45:52;22.10;99.90
13817;DHT22;6979;52.116;5.286;2023-07-31T13:48:21;22.10;99.90
13817;DHT22;6979;52.116;5.286;2023-07-31T13:50:49;22.10;99.90
13817;DHT22;6979;52.116;5.286;2023-07-31T13:53:16;22.10;99.90
13817;DHT22;6979;52.116;5.286;2023-07-31T13:55:43;22.10;99.90
13817;DHT22;6979;52.116;5.286;2023-07-31T13:58:11;22.00;99.90
13817;DHT22;6979;52.116;5.286;2023-07-31T14:00:38;22.00;99.90
13817;DHT22;6979;52.116;5.286;2023-07-31T14:03:08;22.00;99.90
13817;DHT22;6979;52.116;5.286;2023-07-31T14:05:35;22.00;99.90
13817;DHT22;6979;52.116;5.286;2023-07-31T14:08:03;22.00;99.90
13817;DHT22;6979;52.116;5.286;2023-07-31T14:10:35;22.00;99.90
13817;DHT22;6979;52.116;5.286;2023-07-31T14:13:05;22.00;99.90
13817;DHT22;6979;52.116;5.286;2023-07-31T14:15:31;22.00;99.90
13817;DHT22;6979;52.116;5.286;2023-07-31T14:18:01;22.00;99.90
13817;DHT22;6979;52.116;5.286;2023-07-31T14:20:29;22.00;99.90
13817;DHT22;6979;52.116;5.286;2023-07-31T14:22:56;22.00;99.90
13817;DHT22;6979;52.116;5.286;2023-07-31T14:25:24;22.00;99.90
13817;DHT22;6979;52.116;5.286;2023-07-31T14:27:51;22.00;99.90
13817;DHT22;6979;52.116;5.286;2023-07-31T14:30:21;22.00;99.90
13817;DHT22;6979;52.116;5.286;2023-07-31T14:32:49;22.00;99.90
13817;DHT22;6979;52.116;5.286;2023-07-31T14:35:16;22.00;99.90
13817;DHT22;6979;52.116;5.286;2023-07-31T14:37:44;22.00;99.90
13817;DHT22;6979;52.116;5.286;2023-07-31T14:40:12;22.00;99.90
13817;DHT22;6979;52.116;5.286;2023-07-31T14:42:41;22.00;99.90
13817;DHT22;6979;52.116;5.286;2023-07-31T14:45:08;22.00;99.90
13817;DHT22;6979;52.116;5.286;2023-07-31T14:47:36;22.00;99.90
13817;DHT22;6979;52.116;5.286;2023-07-31T14:50:04;22.00;99.90
13817;DHT22;6979;52.116;5.286;2023-07-31T14:52:31;22.00;99.90
13817;DHT22;6979;52.116;5.286;2023-07-31T14:54:58;22.00;99.90
13817;DHT22;6979;52.116;5.286;2023-07-31T14:57:25;22.00;99.90
13817;DHT22;6979;52.116;5.286;2023-07-31T14:59:53;22.00;99.90
13817;DHT22;6979;52.116;5.286;2023-07-31T15:02:23;22.00;99.90
13817;DHT22;6979;52.116;5.286;2023-07-31T15:04:50;21.90;99.90
13817;DHT22;6979;52.116;5.286;2023-07-31T15:07:17;21.90;99.90
13817;DHT22;6979;52.116;5.286;2023-07-31T15:09:44;21.90;99.90
13817;DHT22;6979;52.116;5.286;2023-07-31T15:12:11;21.90;99.90
13817;DHT22;6979;52.116;5.286;2023-07-31T15:14:38;21.80;99.90
13817;DHT22;6979;52.116;5.286;2023-07-31T15:17:12;21.80;99.90
13817;DHT22;6979;52.116;5.286;2023-07-31T15:19:39;21.80;99.90
13817;DHT22;6979;52.116;5.286;2023-07-31T15:22:06;21.80;99.90
13817;DHT22;6979;52.116;5.286;2023-07-31T15:24:34;21.80;99.90
13817;DHT22;6979;52.116;5.286;2023-07-31T15:27:01;21.80;99.90
13817;DHT22;6979;52.116;5.286;2023-07-31T15:29:29;21.80;99.90
13817;DHT22;6979;52.116;5.286;2023-07-31T15:32:03;21.80;99.90
13817;DHT22;6979;52.116;5.286;2023-07-31T15:34:34;21.70;99.90
13817;DHT22;6979;52.116;5.286;2023-07-31T15:37:01;21.70;99.90
13817;DHT22;6979;52.116;5.286;2023-07-31T15:39:28;21.70;99.90
13817;DHT22;6979;52.116;5.286;2023-07-31T15:41:58;21.70;99.90
13817;DHT22;6979;52.116;5.286;2023-07-31T15:44:25;21.70;99.90
13817;DHT22;6979;52.116;5.286;2023-07-31T15:46:52;21.70;99.90
13817;DHT22;6979;52.116;5.286;2023-07-31T15:49:19;21.70;99.90
13817;DHT22;6979;52.116;5.286;2023-07-31T15:51:47;21.70;99.90